sensor_id;sensor_type;location;lat;lon;timestamp;temperature;humidity
23311;DHT22;11828;51.508;18.118;2023-04-15T00:00:16;26.30;36.10
23311;DHT22;11828;51.508;18.118;2023-04-15T00:03:02;26.20;36.10
23311;DHT22;11828;51.508;18.118;2023-04-15T00:05:30;26.30;36.20
23311;DHT22;11828;51.508;18.118;2023-04-15T00:07:57;26.30;36.40
23311;DHT22;11828;51.508;18.118;2023-04-15T00:10:26;26.20;36.20
23311;DHT22;11828;51.508;18.118;2023-04-15T00:12:53;26.30;36.60
23311;DHT22;11828;51.508;18.118;2023-04-15T00:15:19;26.30;36.50
23311;DHT22;11828;51.508;18.118;2023-04-15T00:17:45;26.20;36.60
23311;DHT22;11828;51.508;18.118;2023-04-15T00:20:11;26.20;36.40
23311;DHT22;11828;51.508;18.118;2023-04-15T00:22:37;26.30;36.70
23311;DHT22;11828;51.508;18.118;2023-04-15T00:25:04;26.30;36.40
23311;DHT22;11828;51.508;18.118;2023-04-15T00:27:30;26.20;36.40
23311;DHT22;11828;51.508;18.118;2023-04-15T00:29:56;26.20;36.50
23311;DHT22;11828;51.508;18.118;2023-04-15T00:32:22;26.20;36.50
23311;DHT22;11828;51.508;18.118;2023-04-15T00:34:49;26.30;36.60
23311;DHT22;11828;51.508;18.118;2023-04-15T00:37:15;26.20;36.50
23311;DHT22;11828;51.508;18.118;2023-04-15T00:39:42;26.10;36.30
23311;DHT22;11828;51.508;18.118;2023-04-15T00:42:09;26.10;36.50
23311;DHT22;11828;51.508;18.118;2023-04-15T00:44:35;26.30;36.40
23311;DHT22;11828;51.508;18.118;2023-04-15T00:47:03;26.40;36.20
23311;DHT22;11828;51.508;18.118;2023-04-15T00:49:30;26.50;36.10
23311;DHT22;11828;51.508;18.118;2023-04-15T00:51:56;26.50;35.90
23311;DHT22;11828;51.508;18.118;2023-04-15T00:54:23;26.60;35.70
23311;DHT22;11828;51.508;18.118;2023-04-15T00:56:49;26.70;35.70
23311;DHT22;11828;51.508;18.118;2023-04-15T00:59:16;26.70;35.50
23311;DHT22;11828;51.508;18.118;2023-04-15T01:01:43;26.80;35.50
23311;DHT22;11828;51.508;18.118;2023-04-15T01:04:10;26.80;35.30
23311;DHT22;11828;51.508;18.118;2023-04-15T01:06:36;26.70;35.30
23311;DHT22;11828;51.508;18.118;2023-04-15T01:09:03;26.70;35.40
23311;DHT22;11828;51.508;18.118;2023-04-15T01:11:31;26.70;35.40
23311;DHT22;11828;51.508;18.118;2023-04-15T01:13:59;26.60;35.40
23311;DHT22;11828;51.508;18.118;2023-04-15T01:16:25;26.70;35.40
23311;DHT22;11828;51.508;18.118;2023-04-15T01:18:53;26.80;35.40
23311;DHT22;11828;51.508;18.118;2023-04-15T01:21:20;26.80;35.40
23311;DHT22;11828;51.508;18.118;2023-04-15T01:23:48;26.70;35.20
23311;DHT22;11828;51.508;18.118;2023-04-15T01:26:15;26.80;35.30
23311;DHT22;11828;51.508;18.118;2023-04-15T01:28:42;26.70;35.20
23311;DHT22;11828;51.508;18.118;2023-04-15T01:31:12;26.70;35.20
23311;DHT22;11828;51.508;18.118;2023-04-15T01:33:40;26.70;35.20
23311;DHT22;11828;51.508;18.118;2023-04-15T01:36:08;26.70;35.20
23311;DHT22;11828;51.508;18.118;2023-04-15T01:38:37;26.70;35.20
23311;DHT22;11828;51.508;18.118;2023-04-15T01:41:03;26.70;35.20
23311;DHT22;11828;51.508;18.118;2023-04-15T01:43:33;26.80;35.20
23311;DHT22;11828;51.508;18.118;2023-04-15T01:46:00;26.90;35.00
23311;DHT22;11828;51.508;18.118;2023-04-15T01:48:27;26.90;35.00
23311;DHT22;11828;51.508;18.118;2023-04-15T01:50:54;26.90;35.30
23311;DHT22;11828;51.508;18.118;2023-04-15T01:53:23;26.80;34.90
23311;DHT22;11828;51.508;18.118;2023-04-15T01:55:50;26.80;34.90
23311;DHT22;11828;51.508;18.118;2023-04-15T01:58:17;26.80;35.00
23311;DHT22;11828;51.508;18.118;2023-04-15T02:00:44;26.70;35.00
23311;DHT22;11828;51.508;18.118;2023-04-15T02:03:10;26.80;35.70
23311;DHT22;11828;51.508;18.118;2023-04-15T02:05:36;26.90;35.00
23311;DHT22;11828;51.508;18.118;2023-04-15T02:08:02;26.80;34.80
23311;DHT22;11828;51.508;18.118;2023-04-15T02:10:28;26.90;34.80
23311;DHT22;11828;51.508;18.118;2023-04-15T02:12:55;26.90;34.80
23311;DHT22;11828;51.508;18.118;2023-04-15T02:15:21;26.90;34.90
23311;DHT22;11828;51.508;18.118;2023-04-15T02:17:48;26.80;34.80
23311;DHT22;11828;51.508;18.118;2023-04-15T02:20:18;26.90;34.90
23311;DHT22;11828;51.508;18.118;2023-04-15T02:22:46;26.80;34.80
23311;DHT22;11828;51.508;18.118;2023-04-15T02:25:13;26.80;34.80
23311;DHT22;11828;51.508;18.118;2023-04-15T02:27:42;26.80;34.90
23311;DHT22;11828;51.508;18.118;2023-04-15T02:30:09;26.70;35.00
23311;DHT22;11828;51.508;18.118;2023-04-15T02:32:36;26.70;35.00
23311;DHT22;11828;51.508;18.118;2023-04-15T02:35:07;26.70;35.10
23311;DHT22;11828;51.508;18.118;2023-04-15T02:37:35;26.70;35.10
23311;DHT22;11828;51.508;18.118;2023-04-15T02:40:09;26.70;35.20
23311;DHT22;11828;51.508;18.118;2023-04-15T02:42:39;26.80;35.10
23311;DHT22;11828;51.508;18.118;2023-04-15T02:45:06;26.80;35.20
23311;DHT22;11828;51.508;18.118;2023-04-15T02:47:34;26.80;35.00
23311;DHT22;11828;51.508;18.118;2023-04-15T02:50:02;26.70;35.00
23311;DHT22;11828;51.508;18.118;2023-04-15T02:52:29;26.70;35.00
23311;DHT22;11828;51.508;18.118;2023-04-15T02:54:55;26.70;35.10
23311;DHT22;11828;51.508;18.118;2023-04-15T02:57:26;26.70;35.00
23311;DHT22;11828;51.508;18.118;2023-04-15T02:59:55;26.70;35.10
23311;DHT22;11828;51.508;18.118;2023-04-15T03:02:22;26.70;35.20
23311;DHT22;11828;51.508;18.118;2023-04-15T03:04:48;26.70;35.20
23311;DHT22;11828;51.508;18.118;2023-04-15T03:07:16;26.70;35.30
23311;DHT22;11828;51.508;18.118;2023-04-15T03:09:42;26.60;35.20
23311;DHT22;11828;51.508;18.118;2023-04-15T03:12:09;26.60;35.30
23311;DHT22;11828;51.508;18.118;2023-04-15T03:14:35;26.70;35.20
23311;DHT22;11828;51.508;18.118;2023-04-15T03:17:02;26.80;35.20
23311;DHT22;11828;51.508;18.118;2023-04-15T03:19:28;26.80;35.20
23311;DHT22;11828;51.508;18.118;2023-04-15T03:21:54;26.80;35.20
23311;DHT22;11828;51.508;18.118;2023-04-15T03:24:20;26.90;35.30
23311;DHT22;11828;51.508;18.118;2023-04-15T03:26:47;26.80;35.30
23311;DHT22;11828;51.508;18.118;2023-04-15T03:29:13;26.90;35.50
23311;DHT22;11828;51.508;18.118;2023-04-15T03:31:39;26.90;35.40
23311;DHT22;11828;51.508;18.118;2023-04-15T03:34:06;26.90;35.50
23311;DHT22;11828;51.508;18.118;2023-04-15T03:36:32;26.90;35.50
23311;DHT22;11828;51.508;18.118;2023-04-15T03:38:58;26.90;35.50
23311;DHT22;11828;51.508;18.118;2023-04-15T03:41:27;26.80;35.60
23311;DHT22;11828;51.508;18.118;2023-04-15T03:43:53;26.90;35.60
23311;DHT22;11828;51.508;18.118;2023-04-15T03:46:19;26.90;35.70
23311;DHT22;11828;51.508;18.118;2023-04-15T03:48:46;26.80;35.60
23311;DHT22;11828;51.508;18.118;2023-04-15T03:51:13;26.80;35.80
23311;DHT22;11828;51.508;18.118;2023-04-15T03:53:39;26.80;35.80
23311;DHT22;11828;51.508;18.118;2023-04-15T03:56:05;26.80;35.80
23311;DHT22;11828;51.508;18.118;2023-04-15T03:58:31;26.80;35.80
23311;DHT22;11828;51.508;18.118;2023-04-15T04:00:58;26.90;35.90
23311;DHT22;11828;51.508;18.118;2023-04-15T04:03:24;26.90;35.80
23311;DHT22;11828;51.508;18.118;2023-04-15T04:05:50;26.90;35.80
23311;DHT22;11828;51.508;18.118;2023-04-15T04:08:16;26.90;35.70
23311;DHT22;11828;51.508;18.118;2023-04-15T04:10:44;26.90;35.60
23311;DHT22;11828;51.508;18.118;2023-04-15T04:13:10;26.90;35.60
23311;DHT22;11828;51.508;18.118;2023-04-15T04:15:36;26.90;35.60
23311;DHT22;11828;51.508;18.118;2023-04-15T04:18:02;27.00;35.60
23311;DHT22;11828;51.508;18.118;2023-04-15T04:20:29;27.00;35.50
23311;DHT22;11828;51.508;18.118;2023-04-15T04:22:56;27.00;35.50
23311;DHT22;11828;51.508;18.118;2023-04-15T04:25:23;27.00;35.50
23311;DHT22;11828;51.508;18.118;2023-04-15T04:27:50;27.00;35.40
23311;DHT22;11828;51.508;18.118;2023-04-15T04:30:17;27.00;35.30
23311;DHT22;11828;51.508;18.118;2023-04-15T04:32:43;27.00;35.60
23311;DHT22;11828;51.508;18.118;2023-04-15T04:35:09;26.90;35.60
23311;DHT22;11828;51.508;18.118;2023-04-15T04:37:35;26.90;35.90
23311;DHT22;11828;51.508;18.118;2023-04-15T04:40:02;26.80;37.00
23311;DHT22;11828;51.508;18.118;2023-04-15T04:42:29;26.90;36.40
23311;DHT22;11828;51.508;18.118;2023-04-15T04:44:56;27.00;36.20
23311;DHT22;11828;51.508;18.118;2023-04-15T04:47:22;27.10;36.20
23311;DHT22;11828;51.508;18.118;2023-04-15T04:49:48;27.10;36.20
23311;DHT22;11828;51.508;18.118;2023-04-15T04:52:15;27.10;36.20
23311;DHT22;11828;51.508;18.118;2023-04-15T04:54:41;27.10;36.30
23311;DHT22;11828;51.508;18.118;2023-04-15T04:57:07;27.10;36.30
23311;DHT22;11828;51.508;18.118;2023-04-15T04:59:33;26.90;36.30
23311;DHT22;11828;51.508;18.118;2023-04-15T05:01:59;26.70;37.00
23311;DHT22;11828;51.508;18.118;2023-04-15T05:04:26;26.60;37.30
23311;DHT22;11828;51.508;18.118;2023-04-15T05:06:52;26.60;37.20
23311;DHT22;11828;51.508;18.118;2023-04-15T05:09:18;26.80;37.30
23311;DHT22;11828;51.508;18.118;2023-04-15T05:11:44;26.80;37.10
23311;DHT22;11828;51.508;18.118;2023-04-15T05:14:10;26.90;37.10
23311;DHT22;11828;51.508;18.118;2023-04-15T05:16:37;26.90;37.00
23311;DHT22;11828;51.508;18.118;2023-04-15T05:19:03;27.00;37.50
23311;DHT22;11828;51.508;18.118;2023-04-15T05:21:29;26.90;36.90
23311;DHT22;11828;51.508;18.118;2023-04-15T05:23:56;27.10;37.00
23311;DHT22;11828;51.508;18.118;2023-04-15T05:26:22;27.00;36.90
23311;DHT22;11828;51.508;18.118;2023-04-15T05:28:49;26.90;37.00
23311;DHT22;11828;51.508;18.118;2023-04-15T05:31:15;26.90;37.40
23311;DHT22;11828;51.508;18.118;2023-04-15T05:33:42;26.70;37.50
23311;DHT22;11828;51.508;18.118;2023-04-15T05:36:08;26.70;37.60
23311;DHT22;11828;51.508;18.118;2023-04-15T05:38:34;26.80;37.40
23311;DHT22;11828;51.508;18.118;2023-04-15T05:41:00;26.70;37.30
23311;DHT22;11828;51.508;18.118;2023-04-15T05:43:27;26.70;37.20
23311;DHT22;11828;51.508;18.118;2023-04-15T05:45:53;26.70;37.20
23311;DHT22;11828;51.508;18.118;2023-04-15T05:48:19;26.70;36.40
23311;DHT22;11828;51.508;18.118;2023-04-15T05:50:45;26.70;35.80
23311;DHT22;11828;51.508;18.118;2023-04-15T05:53:12;26.70;35.80
23311;DHT22;11828;51.508;18.118;2023-04-15T05:55:38;26.70;36.00
23311;DHT22;11828;51.508;18.118;2023-04-15T05:58:04;26.80;35.60
23311;DHT22;11828;51.508;18.118;2023-04-15T06:00:30;26.90;35.10
23311;DHT22;11828;51.508;18.118;2023-04-15T06:02:57;27.00;34.90
23311;DHT22;11828;51.508;18.118;2023-04-15T06:05:23;27.00;34.70
23311;DHT22;11828;51.508;18.118;2023-04-15T06:07:50;27.10;34.40
23311;DHT22;11828;51.508;18.118;2023-04-15T06:10:16;27.10;34.40
23311;DHT22;11828;51.508;18.118;2023-04-15T06:12:42;27.20;34.30
23311;DHT22;11828;51.508;18.118;2023-04-15T06:15:09;27.20;34.00
23311;DHT22;11828;51.508;18.118;2023-04-15T06:17:36;27.20;33.20
23311;DHT22;11828;51.508;18.118;2023-04-15T06:20:03;27.20;33.40
23311;DHT22;11828;51.508;18.118;2023-04-15T06:22:29;27.20;33.70
23311;DHT22;11828;51.508;18.118;2023-04-15T06:24:55;27.30;33.50
23311;DHT22;11828;51.508;18.118;2023-04-15T06:27:21;27.40;33.40
23311;DHT22;11828;51.508;18.118;2023-04-15T06:29:47;27.40;33.10
23311;DHT22;11828;51.508;18.118;2023-04-15T06:32:14;27.40;32.70
23311;DHT22;11828;51.508;18.118;2023-04-15T06:34:40;27.30;32.10
23311;DHT22;11828;51.508;18.118;2023-04-15T06:37:06;27.20;32.20
23311;DHT22;11828;51.508;18.118;2023-04-15T06:39:33;27.10;32.10
23311;DHT22;11828;51.508;18.118;2023-04-15T06:42:00;27.10;32.10
23311;DHT22;11828;51.508;18.118;2023-04-15T06:44:26;27.00;31.60
23311;DHT22;11828;51.508;18.118;2023-04-15T06:46:52;27.00;31.80
23311;DHT22;11828;51.508;18.118;2023-04-15T06:49:18;27.00;31.20
23311;DHT22;11828;51.508;18.118;2023-04-15T06:51:44;27.10;31.80
23311;DHT22;11828;51.508;18.118;2023-04-15T06:54:10;27.10;31.50
23311;DHT22;11828;51.508;18.118;2023-04-15T06:56:37;27.10;31.70
23311;DHT22;11828;51.508;18.118;2023-04-15T06:59:03;27.20;31.80
23311;DHT22;11828;51.508;18.118;2023-04-15T07:01:29;27.30;32.00
23311;DHT22;11828;51.508;18.118;2023-04-15T07:03:55;27.40;32.70
23311;DHT22;11828;51.508;18.118;2023-04-15T07:06:22;27.60;32.30
23311;DHT22;11828;51.508;18.118;2023-04-15T07:08:48;27.70;32.30
23311;DHT22;11828;51.508;18.118;2023-04-15T07:11:14;27.90;32.40
23311;DHT22;11828;51.508;18.118;2023-04-15T07:13:42;27.90;32.10
23311;DHT22;11828;51.508;18.118;2023-04-15T07:16:08;28.00;31.70
23311;DHT22;11828;51.508;18.118;2023-04-15T07:18:34;28.20;31.30
23311;DHT22;11828;51.508;18.118;2023-04-15T07:21:00;28.20;30.50
23311;DHT22;11828;51.508;18.118;2023-04-15T07:23:27;28.20;30.60
23311;DHT22;11828;51.508;18.118;2023-04-15T07:25:54;28.20;31.20
23311;DHT22;11828;51.508;18.118;2023-04-15T07:28:20;28.20;31.60
23311;DHT22;11828;51.508;18.118;2023-04-15T07:30:46;28.20;31.40
23311;DHT22;11828;51.508;18.118;2023-04-15T07:33:13;28.10;31.50
23311;DHT22;11828;51.508;18.118;2023-04-15T07:35:39;28.00;31.30
23311;DHT22;11828;51.508;18.118;2023-04-15T07:38:05;28.00;31.60
23311;DHT22;11828;51.508;18.118;2023-04-15T07:40:31;28.00;31.70
23311;DHT22;11828;51.508;18.118;2023-04-15T07:42:57;28.10;32.10
23311;DHT22;11828;51.508;18.118;2023-04-15T07:45:24;28.20;31.60
23311;DHT22;11828;51.508;18.118;2023-04-15T07:47:50;28.20;31.60
23311;DHT22;11828;51.508;18.118;2023-04-15T07:50:16;28.20;30.70
23311;DHT22;11828;51.508;18.118;2023-04-15T07:52:44;28.40;31.10
23311;DHT22;11828;51.508;18.118;2023-04-15T07:55:10;28.50;31.10
23311;DHT22;11828;51.508;18.118;2023-04-15T07:57:36;28.60;31.00
23311;DHT22;11828;51.508;18.118;2023-04-15T08:00:03;28.70;30.50
23311;DHT22;11828;51.508;18.118;2023-04-15T08:02:32;28.80;30.40
23311;DHT22;11828;51.508;18.118;2023-04-15T08:04:58;28.80;30.60
23311;DHT22;11828;51.508;18.118;2023-04-15T08:07:27;28.90;30.60
23311;DHT22;11828;51.508;18.118;2023-04-15T08:09:53;28.90;30.60
23311;DHT22;11828;51.508;18.118;2023-04-15T08:12:19;28.80;30.70
23311;DHT22;11828;51.508;18.118;2023-04-15T08:14:46;28.80;31.10
23311;DHT22;11828;51.508;18.118;2023-04-15T08:17:12;28.80;31.00
23311;DHT22;11828;51.508;18.118;2023-04-15T08:19:39;28.70;30.60
23311;DHT22;11828;51.508;18.118;2023-04-15T08:22:05;28.70;30.50
23311;DHT22;11828;51.508;18.118;2023-04-15T08:24:31;28.70;30.50
23311;DHT22;11828;51.508;18.118;2023-04-15T08:26:57;28.70;30.70
23311;DHT22;11828;51.508;18.118;2023-04-15T08:29:24;28.70;31.00
23311;DHT22;11828;51.508;18.118;2023-04-15T08:31:52;28.70;30.90
23311;DHT22;11828;51.508;18.118;2023-04-15T08:34:19;28.70;31.10
23311;DHT22;11828;51.508;18.118;2023-04-15T08:36:45;28.70;31.30
23311;DHT22;11828;51.508;18.118;2023-04-15T08:39:11;28.80;31.30
23311;DHT22;11828;51.508;18.118;2023-04-15T08:41:45;28.80;31.60
23311;DHT22;11828;51.508;18.118;2023-04-15T08:44:13;28.90;31.90
23311;DHT22;11828;51.508;18.118;2023-04-15T08:46:40;28.90;31.10
23311;DHT22;11828;51.508;18.118;2023-04-15T08:49:11;28.90;31.10
23311;DHT22;11828;51.508;18.118;2023-04-15T08:51:39;29.00;30.90
23311;DHT22;11828;51.508;18.118;2023-04-15T08:54:07;29.00;30.60
23311;DHT22;11828;51.508;18.118;2023-04-15T08:56:34;29.00;30.70
23311;DHT22;11828;51.508;18.118;2023-04-15T08:59:01;29.10;30.80
23311;DHT22;11828;51.508;18.118;2023-04-15T09:01:28;29.20;31.00
23311;DHT22;11828;51.508;18.118;2023-04-15T09:03:55;29.30;31.00
23311;DHT22;11828;51.508;18.118;2023-04-15T09:06:22;29.50;30.80
23311;DHT22;11828;51.508;18.118;2023-04-15T09:08:49;29.60;30.40
23311;DHT22;11828;51.508;18.118;2023-04-15T09:11:16;29.60;30.30
23311;DHT22;11828;51.508;18.118;2023-04-15T09:13:43;29.80;30.70
23311;DHT22;11828;51.508;18.118;2023-04-15T09:16:09;29.90;30.10
23311;DHT22;11828;51.508;18.118;2023-04-15T09:18:37;30.00;30.00
23311;DHT22;11828;51.508;18.118;2023-04-15T09:21:05;30.20;29.90
23311;DHT22;11828;51.508;18.118;2023-04-15T09:23:34;30.30;29.90
23311;DHT22;11828;51.508;18.118;2023-04-15T09:26:01;30.50;29.90
23311;DHT22;11828;51.508;18.118;2023-04-15T09:28:28;30.70;29.70
23311;DHT22;11828;51.508;18.118;2023-04-15T09:30:58;30.90;29.60
23311;DHT22;11828;51.508;18.118;2023-04-15T09:33:27;31.20;29.00
23311;DHT22;11828;51.508;18.118;2023-04-15T09:36:12;31.40;29.00
23311;DHT22;11828;51.508;18.118;2023-04-15T09:38:54;31.70;29.20
23311;DHT22;11828;51.508;18.118;2023-04-15T09:41:24;32.20;28.50
23311;DHT22;11828;51.508;18.118;2023-04-15T09:43:51;32.50;28.20
23311;DHT22;11828;51.508;18.118;2023-04-15T09:46:17;32.60;27.90
23311;DHT22;11828;51.508;18.118;2023-04-15T09:48:44;32.40;27.50
23311;DHT22;11828;51.508;18.118;2023-04-15T09:51:10;32.30;27.40
23311;DHT22;11828;51.508;18.118;2023-04-15T09:53:37;32.10;27.50
23311;DHT22;11828;51.508;18.118;2023-04-15T09:56:03;31.90;27.70
23311;DHT22;11828;51.508;18.118;2023-04-15T09:58:33;31.70;27.60
23311;DHT22;11828;51.508;18.118;2023-04-15T10:01:03;31.60;27.90
23311;DHT22;11828;51.508;18.118;2023-04-15T10:03:34;31.40;27.90
23311;DHT22;11828;51.508;18.118;2023-04-15T10:06:03;31.30;28.00
23311;DHT22;11828;51.508;18.118;2023-04-15T10:08:32;31.20;28.00
23311;DHT22;11828;51.508;18.118;2023-04-15T10:11:02;31.10;28.20
23311;DHT22;11828;51.508;18.118;2023-04-15T10:13:30;31.00;28.30
23311;DHT22;11828;51.508;18.118;2023-04-15T10:16:14;30.80;28.20
23311;DHT22;11828;51.508;18.118;2023-04-15T10:18:46;30.60;28.30
23311;DHT22;11828;51.508;18.118;2023-04-15T10:21:15;30.50;28.10
23311;DHT22;11828;51.508;18.118;2023-04-15T10:23:44;30.40;28.40
23311;DHT22;11828;51.508;18.118;2023-04-15T10:26:11;30.30;28.50
23311;DHT22;11828;51.508;18.118;2023-04-15T10:28:40;30.30;28.50
23311;DHT22;11828;51.508;18.118;2023-04-15T10:31:06;30.30;28.60
23311;DHT22;11828;51.508;18.118;2023-04-15T10:33:34;30.30;28.60
23311;DHT22;11828;51.508;18.118;2023-04-15T10:36:01;30.30;28.60
23311;DHT22;11828;51.508;18.118;2023-04-15T10:38:36;30.10;28.60
23311;DHT22;11828;51.508;18.118;2023-04-15T10:49:26;29.70;28.80
23311;DHT22;11828;51.508;18.118;2023-04-15T10:51:57;29.60;29.00
23311;DHT22;11828;51.508;18.118;2023-04-15T10:59:34;29.10;29.40
23311;DHT22;11828;51.508;18.118;2023-04-15T11:02:03;29.10;29.10
23311;DHT22;11828;51.508;18.118;2023-04-15T11:04:57;28.90;29.10
23311;DHT22;11828;51.508;18.118;2023-04-15T11:13:01;28.70;29.40
23311;DHT22;11828;51.508;18.118;2023-04-15T11:15:37;28.60;29.40
23311;DHT22;11828;51.508;18.118;2023-04-15T11:18:25;28.70;29.40
23311;DHT22;11828;51.508;18.118;2023-04-15T11:20:55;28.70;30.00
23311;DHT22;11828;51.508;18.118;2023-04-15T11:23:33;28.70;29.30
23311;DHT22;11828;51.508;18.118;2023-04-15T11:26:08;28.80;29.30
23311;DHT22;11828;51.508;18.118;2023-04-15T11:28:37;28.90;29.40
23311;DHT22;11828;51.508;18.118;2023-04-15T11:31:11;29.00;29.50
23311;DHT22;11828;51.508;18.118;2023-04-15T11:33:58;29.10;29.70
23311;DHT22;11828;51.508;18.118;2023-04-15T11:36:28;29.10;29.40
23311;DHT22;11828;51.508;18.118;2023-04-15T11:38:57;29.30;29.50
23311;DHT22;11828;51.508;18.118;2023-04-15T11:41:24;29.40;29.70
23311;DHT22;11828;51.508;18.118;2023-04-15T11:43:51;29.60;29.90
23311;DHT22;11828;51.508;18.118;2023-04-15T11:46:17;29.70;30.00
23311;DHT22;11828;51.508;18.118;2023-04-15T11:48:45;30.00;30.00
23311;DHT22;11828;51.508;18.118;2023-04-15T11:51:12;30.20;29.70
23311;DHT22;11828;51.508;18.118;2023-04-15T11:53:49;30.30;29.60
23311;DHT22;11828;51.508;18.118;2023-04-15T11:56:21;30.50;29.50
23311;DHT22;11828;51.508;18.118;2023-04-15T11:58:53;30.70;29.40
23311;DHT22;11828;51.508;18.118;2023-04-15T12:01:35;30.80;28.60
23311;DHT22;11828;51.508;18.118;2023-04-15T12:04:11;30.90;28.60
23311;DHT22;11828;51.508;18.118;2023-04-15T12:06:38;30.90;28.50
23311;DHT22;11828;51.508;18.118;2023-04-15T12:11:37;30.90;28.10
23311;DHT22;11828;51.508;18.118;2023-04-15T12:17:04;31.00;27.60
23311;DHT22;11828;51.508;18.118;2023-04-15T12:19:35;30.90;27.70
23311;DHT22;11828;51.508;18.118;2023-04-15T12:22:05;31.00;27.90
23311;DHT22;11828;51.508;18.118;2023-04-15T12:24:36;31.00;28.00
23311;DHT22;11828;51.508;18.118;2023-04-15T12:27:10;31.10;28.10
23311;DHT22;11828;51.508;18.118;2023-04-15T12:29:39;31.10;27.80
23311;DHT22;11828;51.508;18.118;2023-04-15T12:32:12;31.20;27.80
23311;DHT22;11828;51.508;18.118;2023-04-15T12:34:46;31.30;27.80
23311;DHT22;11828;51.508;18.118;2023-04-15T12:37:16;31.40;27.70
23311;DHT22;11828;51.508;18.118;2023-04-15T12:39:43;31.40;27.60
23311;DHT22;11828;51.508;18.118;2023-04-15T12:42:11;31.50;27.50
23311;DHT22;11828;51.508;18.118;2023-04-15T12:44:38;31.60;27.50
23311;DHT22;11828;51.508;18.118;2023-04-15T12:47:06;31.50;27.40
23311;DHT22;11828;51.508;18.118;2023-04-15T12:49:33;31.60;27.60
23311;DHT22;11828;51.508;18.118;2023-04-15T12:52:00;31.50;27.40
23311;DHT22;11828;51.508;18.118;2023-04-15T12:54:28;31.50;27.40
23311;DHT22;11828;51.508;18.118;2023-04-15T12:56:57;31.50;27.50
23311;DHT22;11828;51.508;18.118;2023-04-15T12:59:24;31.40;27.30
23311;DHT22;11828;51.508;18.118;2023-04-15T13:01:51;31.20;27.20
23311;DHT22;11828;51.508;18.118;2023-04-15T13:04:18;31.20;27.40
23311;DHT22;11828;51.508;18.118;2023-04-15T13:06:45;31.20;27.50
23311;DHT22;11828;51.508;18.118;2023-04-15T13:09:14;31.20;27.50
23311;DHT22;11828;51.508;18.118;2023-04-15T13:11:41;31.20;27.20
23311;DHT22;11828;51.508;18.118;2023-04-15T13:14:08;31.20;27.10
23311;DHT22;11828;51.508;18.118;2023-04-15T13:16:35;31.30;26.90
23311;DHT22;11828;51.508;18.118;2023-04-15T13:19:01;31.60;27.10
23311;DHT22;11828;51.508;18.118;2023-04-15T13:21:28;31.70;26.70
23311;DHT22;11828;51.508;18.118;2023-04-15T13:23:56;31.90;26.50
23311;DHT22;11828;51.508;18.118;2023-04-15T13:26:22;32.10;26.40
23311;DHT22;11828;51.508;18.118;2023-04-15T13:28:49;32.40;26.40
23311;DHT22;11828;51.508;18.118;2023-04-15T13:31:15;32.60;26.10
23311;DHT22;11828;51.508;18.118;2023-04-15T13:33:41;32.70;26.10
23311;DHT22;11828;51.508;18.118;2023-04-15T13:36:07;32.70;26.10
23311;DHT22;11828;51.508;18.118;2023-04-15T13:38:33;32.80;25.90
23311;DHT22;11828;51.508;18.118;2023-04-15T13:41:00;32.80;25.70
23311;DHT22;11828;51.508;18.118;2023-04-15T13:43:26;32.80;25.70
23311;DHT22;11828;51.508;18.118;2023-04-15T13:45:52;32.60;26.10
23311;DHT22;11828;51.508;18.118;2023-04-15T13:48:18;32.40;25.90
23311;DHT22;11828;51.508;18.118;2023-04-15T13:50:44;32.20;26.10
23311;DHT22;11828;51.508;18.118;2023-04-15T13:53:11;32.00;26.20
23311;DHT22;11828;51.508;18.118;2023-04-15T13:55:37;31.80;26.20
23311;DHT22;11828;51.508;18.118;2023-04-15T13:58:08;31.60;26.30
23311;DHT22;11828;51.508;18.118;2023-04-15T14:00:34;31.40;26.60
23311;DHT22;11828;51.508;18.118;2023-04-15T14:03:00;31.20;26.60
23311;DHT22;11828;51.508;18.118;2023-04-15T14:05:27;31.10;26.90
23311;DHT22;11828;51.508;18.118;2023-04-15T14:07:53;31.00;27.10
23311;DHT22;11828;51.508;18.118;2023-04-15T14:10:19;31.00;27.20
23311;DHT22;11828;51.508;18.118;2023-04-15T14:12:45;30.90;27.50
23311;DHT22;11828;51.508;18.118;2023-04-15T14:15:12;30.90;27.70
23311;DHT22;11828;51.508;18.118;2023-04-15T14:17:38;31.00;27.90
23311;DHT22;11828;51.508;18.118;2023-04-15T14:20:06;31.00;27.50
23311;DHT22;11828;51.508;18.118;2023-04-15T14:22:33;31.10;27.60
23311;DHT22;11828;51.508;18.118;2023-04-15T14:24:59;31.00;27.60
23311;DHT22;11828;51.508;18.118;2023-04-15T14:27:26;31.10;28.20
23311;DHT22;11828;51.508;18.118;2023-04-15T14:29:53;31.20;27.80
23311;DHT22;11828;51.508;18.118;2023-04-15T14:32:20;31.10;27.60
23311;DHT22;11828;51.508;18.118;2023-04-15T14:34:46;31.20;27.50
23311;DHT22;11828;51.508;18.118;2023-04-15T14:37:12;31.20;27.30
23311;DHT22;11828;51.508;18.118;2023-04-15T14:39:38;31.20;27.30
23311;DHT22;11828;51.508;18.118;2023-04-15T14:42:04;31.30;27.30
23311;DHT22;11828;51.508;18.118;2023-04-15T14:44:30;31.40;27.40
23311;DHT22;11828;51.508;18.118;2023-04-15T14:46:56;31.40;27.40
23311;DHT22;11828;51.508;18.118;2023-04-15T14:49:23;31.30;27.00
23311;DHT22;11828;51.508;18.118;2023-04-15T14:51:49;31.30;27.20
23311;DHT22;11828;51.508;18.118;2023-04-15T14:54:15;31.20;27.20
23311;DHT22;11828;51.508;18.118;2023-04-15T14:56:41;31.30;27.50
23311;DHT22;11828;51.508;18.118;2023-04-15T14:59:08;31.40;27.50
23311;DHT22;11828;51.508;18.118;2023-04-15T15:01:34;31.60;27.30
23311;DHT22;11828;51.508;18.118;2023-04-15T15:04:00;31.60;27.10
23311;DHT22;11828;51.508;18.118;2023-04-15T15:06:26;31.60;27.20
23311;DHT22;11828;51.508;18.118;2023-04-15T15:08:53;31.60;27.00
23311;DHT22;11828;51.508;18.118;2023-04-15T15:11:19;31.50;27.50
23311;DHT22;11828;51.508;18.118;2023-04-15T15:13:45;31.40;27.10
23311;DHT22;11828;51.508;18.118;2023-04-15T15:16:12;31.20;27.00
23311;DHT22;11828;51.508;18.118;2023-04-15T15:18:38;31.10;27.10
23311;DHT22;11828;51.508;18.118;2023-04-15T15:21:04;31.00;27.30
23311;DHT22;11828;51.508;18.118;2023-04-15T15:23:31;31.00;27.40
23311;DHT22;11828;51.508;18.118;2023-04-15T15:25:57;30.90;27.50
23311;DHT22;11828;51.508;18.118;2023-04-15T15:28:24;30.90;27.50
23311;DHT22;11828;51.508;18.118;2023-04-15T15:30:50;30.70;27.60
23311;DHT22;11828;51.508;18.118;2023-04-15T15:33:16;30.70;27.70
23311;DHT22;11828;51.508;18.118;2023-04-15T15:35:43;30.60;27.90
23311;DHT22;11828;51.508;18.118;2023-04-15T15:38:10;30.50;27.90
23311;DHT22;11828;51.508;18.118;2023-04-15T15:40:37;30.40;27.90